Mount Carroll, IL (61053)

1:26 AM CST on December 11, 2016 (GMT -0600)
Aspen Drive | | Change Station
Active Advisory: Winter Storm Warning

Elev 810 ft 42.09 °N, 89.98 °W | Updated 1 minute ago

Snow
Snow
24.3 °F
Feels Like 19 °F
N
4.0
Wind Variable Wind from South
Gusts 9.0 mph

Today
High -- | Low -- °F
--% Chance of Precip.
Yesterday
High -- | Low -- °F
Precip. -- in
Pressure 30.14 in
Visibility 2.0 miles
Clouds Overcast 1300 ft
Windchill 19 °F
Dew Point 23 °F
Humidity 93%
Rainfall 0.00 in
Snow Depth Not available.
7:18 AM 4:28 PM
Waxing Gibbous, 89% visible
METAR KSFY 110715Z AUTO 11007KT 2SM -SN OVC013 M04/M06 A3014 RMK AO2 T10411056
Pressure 30.14 in
Visibility 2.0 miles
Clouds Overcast 1300 ft
Windchill 19 °F
Dew Point 23 °F
Humidity 93%
Rainfall 0.00 in
Snow Depth Not available.
7:18 AM 4:28 PM
Waxing Gibbous, 89% visible
METAR KSFY 110715Z AUTO 11007KT 2SM -SN OVC013 M04/M06 A3014 RMK AO2 T10411056

10-Day Weather Forecast

Almanac

Astronomy

Dec. 11, 2016 Rise Set
Actual Time
Civil Twilight
Nautical Twilight
Astronomical Twilight
Moon
Length of Visible Light
Length of Day
Tomorrow will be .
, % of the Moon is Illuminated

Today's Extremes

State Highs State Lows

Community

WunderPhotos

Upload Photos

1,956,707 photos uploaded!

WunderBlog® & News

Nearby

Air Quality

  Air Quality AQ Index Pollutant
Not available.

Snow Depth

Station Depth Elevation

Earthquake Activity

City Distance Mag. Time & Date
Minimum magnitude displayed is 2.5.

Coastal Water Temperatures

Place Temperature

Stations

Nearby Weather Stations

Station Location Temp. Windchill Dew Point Humidity Wind Precip. Elev Updated Type
                   

Watches & Warnings

Winter Storm Warning
Issued: 11:09 PM CST Dec. 10, 2016 – National Weather Service

... Winter Storm Warning remains in effect until 6 PM CST Sunday...

* timing... periods of snow overnight through Sunday.

* Snow accumulations... storm totals of 6 to 8 inches.

* Wind... southeast 10 to 15 mph with gusts up to 20 mph.

* Visibilities... occasionally below 1/2 mile in periods of
heavier snow.

* Temperatures... 19 to 25 degrees overnight... warming to around
30 degrees during the day Sunday.

* Impacts... moderate to briefly heavy snowfall will create
hazardous travel conditions over the area... and will reduce
visibility to under 1/2 mile at times.

Precautionary/preparedness actions...

A Winter Storm Warning for heavy snow means severe winter weather
conditions are expected or occurring. Significant amounts of snow
are forecast that will make travel dangerous. Only travel in an
emergency. If you must travel... keep an extra flashlight...
food... and water in your vehicle in case of an emergency.